sensor_id;sensor_type;location;lat;lon;timestamp;P1;durP1;ratioP1;P2;durP2;ratioP2
19205;SDS011;59358;52.134;5.596;2022-10-15T00:00:47;198.05;;;74.93;;
19205;SDS011;59358;52.134;5.596;2022-10-15T00:03:15;185.65;;;70.78;;
19205;SDS011;59358;52.134;5.596;2022-10-15T00:05:42;210.20;;;77.40;;
19205;SDS011;59358;52.134;5.596;2022-10-15T00:08:09;204.10;;;77.53;;
19205;SDS011;59358;52.134;5.596;2022-10-15T00:10:36;196.05;;;75.50;;
19205;SDS011;59358;52.134;5.596;2022-10-15T00:13:05;200.82;;;79.35;;
19205;SDS011;59358;52.134;5.596;2022-10-15T00:15:34;190.30;;;73.82;;
19205;SDS011;59358;52.134;5.596;2022-10-15T00:18:01;199.80;;;78.10;;
19205;SDS011;59358;52.134;5.596;2022-10-15T00:20:28;183.40;;;74.93;;
19205;SDS011;59358;52.134;5.596;2022-10-15T00:22:55;194.95;;;76.63;;
19205;SDS011;59358;52.134;5.596;2022-10-15T00:25:22;178.32;;;73.00;;
19205;SDS011;59358;52.134;5.596;2022-10-15T00:27:49;181.55;;;74.43;;
19205;SDS011;59358;52.134;5.596;2022-10-15T00:30:17;183.57;;;70.75;;
19205;SDS011;59358;52.134;5.596;2022-10-15T00:32:44;172.10;;;69.32;;
19205;SDS011;59358;52.134;5.596;2022-10-15T00:35:11;174.75;;;72.40;;
19205;SDS011;59358;52.134;5.596;2022-10-15T00:37:38;167.48;;;68.50;;
19205;SDS011;59358;52.134;5.596;2022-10-15T00:40:05;155.60;;;67.22;;
19205;SDS011;59358;52.134;5.596;2022-10-15T00:42:33;168.35;;;69.93;;
19205;SDS011;59358;52.134;5.596;2022-10-15T00:45:00;150.95;;;63.65;;
19205;SDS011;59358;52.134;5.596;2022-10-15T00:47:29;156.25;;;65.72;;
19205;SDS011;59358;52.134;5.596;2022-10-15T00:50:04;158.25;;;67.28;;
19205;SDS011;59358;52.134;5.596;2022-10-15T00:52:37;161.98;;;67.97;;
19205;SDS011;59358;52.134;5.596;2022-10-15T00:55:11;160.98;;;67.78;;
19205;SDS011;59358;52.134;5.596;2022-10-15T00:57:40;148.68;;;65.15;;
19205;SDS011;59358;52.134;5.596;2022-10-15T01:00:11;176.35;;;71.55;;
19205;SDS011;59358;52.134;5.596;2022-10-15T01:02:41;152.45;;;67.32;;
19205;SDS011;59358;52.134;5.596;2022-10-15T01:05:09;155.65;;;67.68;;
19205;SDS011;59358;52.134;5.596;2022-10-15T01:07:36;164.82;;;69.57;;
19205;SDS011;59358;52.134;5.596;2022-10-15T01:10:03;160.15;;;69.18;;
19205;SDS011;59358;52.134;5.596;2022-10-15T01:12:37;157.98;;;67.22;;
19205;SDS011;59358;52.134;5.596;2022-10-15T01:15:12;171.60;;;69.55;;
19205;SDS011;59358;52.134;5.596;2022-10-15T01:17:47;157.05;;;67.32;;
19205;SDS011;59358;52.134;5.596;2022-10-15T01:20:24;163.25;;;65.78;;
19205;SDS011;59358;52.134;5.596;2022-10-15T01:23:13;156.85;;;69.05;;
19205;SDS011;59358;52.134;5.596;2022-10-15T01:25:59;151.38;;;67.68;;
19205;SDS011;59358;52.134;5.596;2022-10-15T01:28:41;163.68;;;69.57;;
19205;SDS011;59358;52.134;5.596;2022-10-15T01:31:19;161.80;;;69.25;;
19205;SDS011;59358;52.134;5.596;2022-10-15T01:33:54;165.25;;;69.18;;
19205;SDS011;59358;52.134;5.596;2022-10-15T01:36:26;165.43;;;70.70;;
19205;SDS011;59358;52.134;5.596;2022-10-15T01:39:00;162.80;;;69.10;;
19205;SDS011;59358;52.134;5.596;2022-10-15T01:41:36;159.63;;;69.25;;
19205;SDS011;59358;52.134;5.596;2022-10-15T01:44:08;172.82;;;72.43;;
19205;SDS011;59358;52.134;5.596;2022-10-15T01:46:39;165.63;;;71.75;;
19205;SDS011;59358;52.134;5.596;2022-10-15T01:49:11;169.60;;;70.35;;
19205;SDS011;59358;52.134;5.596;2022-10-15T01:51:40;158.85;;;68.15;;
19205;SDS011;59358;52.134;5.596;2022-10-15T01:54:10;173.68;;;74.38;;
19205;SDS011;59358;52.134;5.596;2022-10-15T01:56:42;165.30;;;71.53;;
19205;SDS011;59358;52.134;5.596;2022-10-15T01:59:13;161.32;;;69.22;;
19205;SDS011;59358;52.134;5.596;2022-10-15T02:01:43;175.40;;;71.22;;
19205;SDS011;59358;52.134;5.596;2022-10-15T02:04:16;177.48;;;73.60;;
19205;SDS011;59358;52.134;5.596;2022-10-15T02:06:45;186.98;;;74.55;;
19205;SDS011;59358;52.134;5.596;2022-10-15T02:09:20;180.98;;;73.85;;
19205;SDS011;59358;52.134;5.596;2022-10-15T02:11:59;174.50;;;71.35;;
19205;SDS011;59358;52.134;5.596;2022-10-15T02:14:32;176.48;;;72.82;;
19205;SDS011;59358;52.134;5.596;2022-10-15T02:17:05;190.93;;;77.28;;
19205;SDS011;59358;52.134;5.596;2022-10-15T02:19:37;184.73;;;74.00;;
19205;SDS011;59358;52.134;5.596;2022-10-15T02:22:11;201.48;;;75.80;;
19205;SDS011;59358;52.134;5.596;2022-10-15T02:24:43;200.38;;;79.55;;
19205;SDS011;59358;52.134;5.596;2022-10-15T02:27:16;215.52;;;83.25;;
19205;SDS011;59358;52.134;5.596;2022-10-15T02:29:45;213.75;;;81.25;;
19205;SDS011;59358;52.134;5.596;2022-10-15T02:32:15;216.73;;;82.80;;
19205;SDS011;59358;52.134;5.596;2022-10-15T02:34:45;207.60;;;79.85;;
19205;SDS011;59358;52.134;5.596;2022-10-15T02:37:13;238.05;;;88.93;;
19205;SDS011;59358;52.134;5.596;2022-10-15T02:39:42;220.02;;;86.45;;
19205;SDS011;59358;52.134;5.596;2022-10-15T02:42:09;235.45;;;87.88;;
19205;SDS011;59358;52.134;5.596;2022-10-15T02:44:36;232.98;;;91.25;;
19205;SDS011;59358;52.134;5.596;2022-10-15T02:47:03;228.60;;;88.13;;
19205;SDS011;59358;52.134;5.596;2022-10-15T02:49:31;230.38;;;88.25;;
19205;SDS011;59358;52.134;5.596;2022-10-15T02:51:58;217.27;;;89.15;;
19205;SDS011;59358;52.134;5.596;2022-10-15T02:54:25;223.25;;;88.13;;
19205;SDS011;59358;52.134;5.596;2022-10-15T02:56:51;219.02;;;86.40;;
19205;SDS011;59358;52.134;5.596;2022-10-15T02:59:18;223.73;;;87.60;;
19205;SDS011;59358;52.134;5.596;2022-10-15T03:01:46;218.18;;;86.57;;
19205;SDS011;59358;52.134;5.596;2022-10-15T03:04:13;206.23;;;82.88;;
19205;SDS011;59358;52.134;5.596;2022-10-15T03:06:41;205.32;;;81.22;;
19205;SDS011;59358;52.134;5.596;2022-10-15T03:09:08;179.93;;;77.03;;
19205;SDS011;59358;52.134;5.596;2022-10-15T03:11:34;190.82;;;77.85;;
19205;SDS011;59358;52.134;5.596;2022-10-15T03:14:03;178.40;;;78.05;;
19205;SDS011;59358;52.134;5.596;2022-10-15T03:16:29;176.15;;;75.70;;
19205;SDS011;59358;52.134;5.596;2022-10-15T03:18:56;170.38;;;71.63;;
19205;SDS011;59358;52.134;5.596;2022-10-15T03:21:23;161.00;;;69.75;;
19205;SDS011;59358;52.134;5.596;2022-10-15T03:23:54;147.75;;;64.97;;
19205;SDS011;59358;52.134;5.596;2022-10-15T03:26:21;157.10;;;67.82;;
19205;SDS011;59358;52.134;5.596;2022-10-15T03:28:48;172.70;;;70.18;;
19205;SDS011;59358;52.134;5.596;2022-10-15T03:31:15;165.60;;;68.82;;
19205;SDS011;59358;52.134;5.596;2022-10-15T03:33:42;160.07;;;70.35;;
19205;SDS011;59358;52.134;5.596;2022-10-15T03:36:09;154.65;;;65.80;;
19205;SDS011;59358;52.134;5.596;2022-10-15T03:38:36;166.77;;;68.95;;
19205;SDS011;59358;52.134;5.596;2022-10-15T03:41:04;177.55;;;73.32;;
19205;SDS011;59358;52.134;5.596;2022-10-15T03:43:31;180.77;;;70.78;;
19205;SDS011;59358;52.134;5.596;2022-10-15T03:46:00;164.25;;;70.28;;
19205;SDS011;59358;52.134;5.596;2022-10-15T03:48:27;156.98;;;64.93;;
19205;SDS011;59358;52.134;5.596;2022-10-15T03:50:54;176.02;;;73.63;;
19205;SDS011;59358;52.134;5.596;2022-10-15T03:53:20;176.68;;;70.18;;
19205;SDS011;59358;52.134;5.596;2022-10-15T03:55:48;173.40;;;71.80;;
19205;SDS011;59358;52.134;5.596;2022-10-15T03:58:16;170.68;;;71.30;;
19205;SDS011;59358;52.134;5.596;2022-10-15T04:00:43;160.63;;;67.65;;
19205;SDS011;59358;52.134;5.596;2022-10-15T04:03:10;181.02;;;73.10;;
19205;SDS011;59358;52.134;5.596;2022-10-15T04:05:39;177.27;;;74.97;;
19205;SDS011;59358;52.134;5.596;2022-10-15T04:08:05;183.95;;;70.38;;
19205;SDS011;59358;52.134;5.596;2022-10-15T04:10:32;208.75;;;79.22;;
19205;SDS011;59358;52.134;5.596;2022-10-15T04:12:59;229.65;;;82.32;;
19205;SDS011;59358;52.134;5.596;2022-10-15T04:15:27;237.65;;;85.55;;
19205;SDS011;59358;52.134;5.596;2022-10-15T04:17:54;206.52;;;78.88;;
19205;SDS011;59358;52.134;5.596;2022-10-15T04:20:21;231.55;;;87.30;;
19205;SDS011;59358;52.134;5.596;2022-10-15T04:22:48;249.00;;;90.97;;
19205;SDS011;59358;52.134;5.596;2022-10-15T04:25:14;226.25;;;86.55;;
19205;SDS011;59358;52.134;5.596;2022-10-15T04:27:41;237.70;;;89.70;;
19205;SDS011;59358;52.134;5.596;2022-10-15T04:30:09;248.45;;;92.68;;
19205;SDS011;59358;52.134;5.596;2022-10-15T04:32:39;218.75;;;84.60;;
19205;SDS011;59358;52.134;5.596;2022-10-15T04:35:05;234.93;;;89.20;;
19205;SDS011;59358;52.134;5.596;2022-10-15T04:37:33;220.60;;;88.93;;
19205;SDS011;59358;52.134;5.596;2022-10-15T04:40:00;227.32;;;88.60;;
19205;SDS011;59358;52.134;5.596;2022-10-15T04:42:27;227.50;;;87.95;;
19205;SDS011;59358;52.134;5.596;2022-10-15T04:44:54;245.90;;;92.53;;
19205;SDS011;59358;52.134;5.596;2022-10-15T04:47:21;235.98;;;87.07;;
19205;SDS011;59358;52.134;5.596;2022-10-15T04:49:49;229.20;;;88.45;;
19205;SDS011;59358;52.134;5.596;2022-10-15T04:52:16;266.88;;;94.18;;
19205;SDS011;59358;52.134;5.596;2022-10-15T04:54:43;260.75;;;96.57;;
19205;SDS011;59358;52.134;5.596;2022-10-15T04:57:10;263.67;;;97.65;;
19205;SDS011;59358;52.134;5.596;2022-10-15T04:59:37;258.65;;;95.97;;
19205;SDS011;59358;52.134;5.596;2022-10-15T05:02:04;254.57;;;95.78;;
19205;SDS011;59358;52.134;5.596;2022-10-15T05:04:31;264.40;;;97.80;;
19205;SDS011;59358;52.134;5.596;2022-10-15T05:06:59;273.17;;;100.47;;
19205;SDS011;59358;52.134;5.596;2022-10-15T05:09:26;263.02;;;98.35;;
19205;SDS011;59358;52.134;5.596;2022-10-15T05:11:53;262.35;;;96.10;;
19205;SDS011;59358;52.134;5.596;2022-10-15T05:14:20;260.92;;;95.75;;
19205;SDS011;59358;52.134;5.596;2022-10-15T05:16:46;234.10;;;94.05;;
19205;SDS011;59358;52.134;5.596;2022-10-15T05:19:13;259.27;;;96.22;;
19205;SDS011;59358;52.134;5.596;2022-10-15T05:21:42;275.63;;;96.28;;
19205;SDS011;59358;52.134;5.596;2022-10-15T05:24:10;258.90;;;96.60;;
19205;SDS011;59358;52.134;5.596;2022-10-15T05:26:37;260.73;;;97.82;;
19205;SDS011;59358;52.134;5.596;2022-10-15T05:29:03;244.13;;;88.53;;
19205;SDS011;59358;52.134;5.596;2022-10-15T05:31:31;230.95;;;89.88;;
19205;SDS011;59358;52.134;5.596;2022-10-15T05:34:04;243.82;;;92.50;;
19205;SDS011;59358;52.134;5.596;2022-10-15T05:36:32;269.98;;;98.43;;
19205;SDS011;59358;52.134;5.596;2022-10-15T05:39:00;276.10;;;96.18;;
19205;SDS011;59358;52.134;5.596;2022-10-15T05:41:29;255.18;;;98.95;;
19205;SDS011;59358;52.134;5.596;2022-10-15T05:43:56;250.93;;;94.63;;
19205;SDS011;59358;52.134;5.596;2022-10-15T05:46:24;262.35;;;98.38;;
19205;SDS011;59358;52.134;5.596;2022-10-15T05:48:52;269.80;;;101.40;;
19205;SDS011;59358;52.134;5.596;2022-10-15T05:51:20;266.17;;;100.95;;
19205;SDS011;59358;52.134;5.596;2022-10-15T05:53:50;279.85;;;103.95;;
19205;SDS011;59358;52.134;5.596;2022-10-15T05:56:17;282.90;;;102.22;;
19205;SDS011;59358;52.134;5.596;2022-10-15T05:58:45;281.45;;;101.70;;
19205;SDS011;59358;52.134;5.596;2022-10-15T06:01:12;287.95;;;100.18;;
19205;SDS011;59358;52.134;5.596;2022-10-15T06:03:39;292.65;;;98.85;;
19205;SDS011;59358;52.134;5.596;2022-10-15T06:06:14;324.48;;;107.05;;
19205;SDS011;59358;52.134;5.596;2022-10-15T06:08:42;279.02;;;103.97;;
19205;SDS011;59358;52.134;5.596;2022-10-15T06:11:08;327.60;;;115.88;;
19205;SDS011;59358;52.134;5.596;2022-10-15T06:13:36;310.80;;;102.25;;
19205;SDS011;59358;52.134;5.596;2022-10-15T06:16:05;304.45;;;97.43;;
19205;SDS011;59358;52.134;5.596;2022-10-15T06:18:33;269.75;;;92.43;;
19205;SDS011;59358;52.134;5.596;2022-10-15T06:21:00;268.83;;;88.80;;
19205;SDS011;59358;52.134;5.596;2022-10-15T06:23:27;275.55;;;89.32;;
19205;SDS011;59358;52.134;5.596;2022-10-15T06:25:53;238.27;;;83.53;;
19205;SDS011;59358;52.134;5.596;2022-10-15T06:28:20;238.32;;;83.82;;
19205;SDS011;59358;52.134;5.596;2022-10-15T06:30:47;247.73;;;84.07;;
19205;SDS011;59358;52.134;5.596;2022-10-15T06:33:15;226.50;;;82.97;;
19205;SDS011;59358;52.134;5.596;2022-10-15T06:35:42;226.70;;;84.78;;
19205;SDS011;59358;52.134;5.596;2022-10-15T06:38:09;213.43;;;74.07;;
19205;SDS011;59358;52.134;5.596;2022-10-15T06:40:37;201.68;;;72.25;;
19205;SDS011;59358;52.134;5.596;2022-10-15T06:43:05;207.23;;;69.57;;
19205;SDS011;59358;52.134;5.596;2022-10-15T06:45:33;197.57;;;70.00;;
19205;SDS011;59358;52.134;5.596;2022-10-15T06:48:02;191.68;;;67.45;;
19205;SDS011;59358;52.134;5.596;2022-10-15T06:50:31;195.15;;;68.28;;
19205;SDS011;59358;52.134;5.596;2022-10-15T06:52:58;194.13;;;68.88;;
19205;SDS011;59358;52.134;5.596;2022-10-15T06:55:25;187.82;;;66.53;;
19205;SDS011;59358;52.134;5.596;2022-10-15T06:57:53;192.38;;;68.13;;
19205;SDS011;59358;52.134;5.596;2022-10-15T07:00:20;186.05;;;65.25;;
19205;SDS011;59358;52.134;5.596;2022-10-15T07:02:47;177.68;;;63.85;;
19205;SDS011;59358;52.134;5.596;2022-10-15T07:05:14;181.65;;;62.25;;
19205;SDS011;59358;52.134;5.596;2022-10-15T07:07:42;166.10;;;60.05;;
19205;SDS011;59358;52.134;5.596;2022-10-15T07:10:17;165.02;;;60.05;;
19205;SDS011;59358;52.134;5.596;2022-10-15T07:12:43;161.65;;;57.40;;
19205;SDS011;59358;52.134;5.596;2022-10-15T07:15:10;151.35;;;56.33;;
19205;SDS011;59358;52.134;5.596;2022-10-15T07:17:38;162.52;;;60.08;;
19205;SDS011;59358;52.134;5.596;2022-10-15T07:20:05;157.93;;;59.30;;
19205;SDS011;59358;52.134;5.596;2022-10-15T07:22:33;168.70;;;65.07;;
19205;SDS011;59358;52.134;5.596;2022-10-15T07:25:01;151.00;;;59.40;;
19205;SDS011;59358;52.134;5.596;2022-10-15T07:27:27;136.23;;;56.15;;
19205;SDS011;59358;52.134;5.596;2022-10-15T07:29:54;139.93;;;57.13;;
19205;SDS011;59358;52.134;5.596;2022-10-15T07:32:21;127.68;;;55.13;;
19205;SDS011;59358;52.134;5.596;2022-10-15T07:34:48;118.75;;;52.45;;
19205;SDS011;59358;52.134;5.596;2022-10-15T07:37:15;109.45;;;49.00;;
19205;SDS011;59358;52.134;5.596;2022-10-15T07:39:41;116.97;;;49.55;;
19205;SDS011;59358;52.134;5.596;2022-10-15T07:42:09;104.22;;;48.25;;
19205;SDS011;59358;52.134;5.596;2022-10-15T07:44:36;98.03;;;47.05;;
19205;SDS011;59358;52.134;5.596;2022-10-15T07:47:03;89.47;;;43.30;;
19205;SDS011;59358;52.134;5.596;2022-10-15T07:49:30;84.70;;;44.60;;
19205;SDS011;59358;52.134;5.596;2022-10-15T07:51:57;86.93;;;45.10;;
19205;SDS011;59358;52.134;5.596;2022-10-15T07:54:24;77.13;;;43.33;;
19205;SDS011;59358;52.134;5.596;2022-10-15T07:56:50;73.97;;;41.13;;
19205;SDS011;59358;52.134;5.596;2022-10-15T07:59:19;64.85;;;38.28;;
19205;SDS011;59358;52.134;5.596;2022-10-15T08:01:45;80.90;;;42.08;;
19205;SDS011;59358;52.134;5.596;2022-10-15T08:04:13;92.00;;;54.53;;
19205;SDS011;59358;52.134;5.596;2022-10-15T08:06:39;80.47;;;48.58;;
19205;SDS011;59358;52.134;5.596;2022-10-15T08:09:06;70.90;;;42.45;;
19205;SDS011;59358;52.134;5.596;2022-10-15T08:11:33;62.58;;;37.83;;
19205;SDS011;59358;52.134;5.596;2022-10-15T08:14:00;59.20;;;35.70;;
19205;SDS011;59358;52.134;5.596;2022-10-15T08:16:29;57.08;;;33.38;;
19205;SDS011;59358;52.134;5.596;2022-10-15T08:18:56;50.63;;;30.10;;
19205;SDS011;59358;52.134;5.596;2022-10-15T08:21:23;44.17;;;28.65;;
19205;SDS011;59358;52.134;5.596;2022-10-15T08:23:50;49.08;;;31.13;;
19205;SDS011;59358;52.134;5.596;2022-10-15T08:26:17;50.67;;;31.23;;
19205;SDS011;59358;52.134;5.596;2022-10-15T08:28:44;53.05;;;34.42;;
19205;SDS011;59358;52.134;5.596;2022-10-15T08:31:11;49.58;;;34.95;;
19205;SDS011;59358;52.134;5.596;2022-10-15T08:33:40;37.63;;;26.17;;
19205;SDS011;59358;52.134;5.596;2022-10-15T08:36:08;37.55;;;25.05;;
19205;SDS011;59358;52.134;5.596;2022-10-15T08:38:35;37.33;;;25.60;;
19205;SDS011;59358;52.134;5.596;2022-10-15T08:41:03;36.97;;;25.80;;
19205;SDS011;59358;52.134;5.596;2022-10-15T08:43:39;35.65;;;23.80;;
19205;SDS011;59358;52.134;5.596;2022-10-15T08:46:08;36.47;;;23.58;;
19205;SDS011;59358;52.134;5.596;2022-10-15T08:48:38;36.35;;;23.70;;
19205;SDS011;59358;52.134;5.596;2022-10-15T08:51:12;33.40;;;22.27;;
19205;SDS011;59358;52.134;5.596;2022-10-15T08:53:42;32.75;;;22.42;;
19205;SDS011;59358;52.134;5.596;2022-10-15T08:56:16;33.22;;;22.50;;
19205;SDS011;59358;52.134;5.596;2022-10-15T08:58:48;34.05;;;22.35;;
19205;SDS011;59358;52.134;5.596;2022-10-15T09:01:20;30.58;;;21.17;;
19205;SDS011;59358;52.134;5.596;2022-10-15T09:03:54;30.85;;;21.63;;
19205;SDS011;59358;52.134;5.596;2022-10-15T09:06:33;31.45;;;21.90;;
19205;SDS011;59358;52.134;5.596;2022-10-15T09:09:05;31.45;;;22.00;;
19205;SDS011;59358;52.134;5.596;2022-10-15T09:11:40;33.28;;;23.23;;
19205;SDS011;59358;52.134;5.596;2022-10-15T09:14:17;35.28;;;24.48;;
19205;SDS011;59358;52.134;5.596;2022-10-15T09:16:47;33.15;;;23.98;;
19205;SDS011;59358;52.134;5.596;2022-10-15T09:19:17;35.67;;;23.65;;
19205;SDS011;59358;52.134;5.596;2022-10-15T09:21:45;34.03;;;24.27;;
19205;SDS011;59358;52.134;5.596;2022-10-15T09:24:16;31.75;;;23.00;;
19205;SDS011;59358;52.134;5.596;2022-10-15T09:26:49;30.63;;;23.15;;
19205;SDS011;59358;52.134;5.596;2022-10-15T09:29:26;31.45;;;23.08;;
19205;SDS011;59358;52.134;5.596;2022-10-15T09:32:02;31.20;;;23.02;;
19205;SDS011;59358;52.134;5.596;2022-10-15T09:34:36;32.03;;;22.25;;
19205;SDS011;59358;52.134;5.596;2022-10-15T09:37:10;32.80;;;22.45;;
19205;SDS011;59358;52.134;5.596;2022-10-15T09:39:46;31.17;;;20.63;;
19205;SDS011;59358;52.134;5.596;2022-10-15T09:42:26;25.85;;;18.85;;
19205;SDS011;59358;52.134;5.596;2022-10-15T09:44:56;26.92;;;17.77;;
19205;SDS011;59358;52.134;5.596;2022-10-15T09:47:28;25.13;;;18.08;;
19205;SDS011;59358;52.134;5.596;2022-10-15T09:49:58;22.77;;;17.92;;
19205;SDS011;59358;52.134;5.596;2022-10-15T09:52:29;20.58;;;17.63;;
19205;SDS011;59358;52.134;5.596;2022-10-15T09:55:17;28.20;;;19.33;;
19205;SDS011;59358;52.134;5.596;2022-10-15T09:58:02;25.38;;;18.00;;
19205;SDS011;59358;52.134;5.596;2022-10-15T10:00:55;20.67;;;15.88;;
19205;SDS011;59358;52.134;5.596;2022-10-15T10:03:25;19.95;;;15.98;;
19205;SDS011;59358;52.134;5.596;2022-10-15T10:06:02;22.30;;;16.83;;
19205;SDS011;59358;52.134;5.596;2022-10-15T10:08:33;20.77;;;16.15;;
19205;SDS011;59358;52.134;5.596;2022-10-15T10:11:02;24.08;;;17.63;;
19205;SDS011;59358;52.134;5.596;2022-10-15T10:13:43;26.23;;;19.98;;
19205;SDS011;59358;52.134;5.596;2022-10-15T10:16:15;22.58;;;16.83;;
19205;SDS011;59358;52.134;5.596;2022-10-15T10:18:44;22.30;;;16.98;;
19205;SDS011;59358;52.134;5.596;2022-10-15T10:21:31;21.40;;;14.75;;
19205;SDS011;59358;52.134;5.596;2022-10-15T10:26:45;21.30;;;15.15;;
19205;SDS011;59358;52.134;5.596;2022-10-15T10:29:15;21.58;;;15.32;;
19205;SDS011;59358;52.134;5.596;2022-10-15T10:31:45;22.15;;;15.75;;
19205;SDS011;59358;52.134;5.596;2022-10-15T10:34:16;21.83;;;15.82;;
19205;SDS011;59358;52.134;5.596;2022-10-15T10:36:48;22.20;;;15.27;;
19205;SDS011;59358;52.134;5.596;2022-10-15T10:39:19;20.90;;;15.43;;
19205;SDS011;59358;52.134;5.596;2022-10-15T10:41:52;24.17;;;15.63;;
19205;SDS011;59358;52.134;5.596;2022-10-15T10:44:21;23.23;;;15.88;;
19205;SDS011;59358;52.134;5.596;2022-10-15T10:47:03;25.17;;;16.42;;
19205;SDS011;59358;52.134;5.596;2022-10-15T10:49:36;23.95;;;16.45;;
19205;SDS011;59358;52.134;5.596;2022-10-15T10:52:05;23.83;;;15.05;;
19205;SDS011;59358;52.134;5.596;2022-10-15T10:54:43;22.65;;;15.82;;
19205;SDS011;59358;52.134;5.596;2022-10-15T10:57:11;20.30;;;14.95;;
19205;SDS011;59358;52.134;5.596;2022-10-15T10:59:42;20.98;;;14.20;;
19205;SDS011;59358;52.134;5.596;2022-10-15T11:02:13;21.67;;;14.63;;
19205;SDS011;59358;52.134;5.596;2022-10-15T11:04:40;23.25;;;15.55;;
19205;SDS011;59358;52.134;5.596;2022-10-15T11:07:11;22.50;;;15.43;;
19205;SDS011;59358;52.134;5.596;2022-10-15T11:09:46;21.35;;;14.90;;
19205;SDS011;59358;52.134;5.596;2022-10-15T11:12:25;22.42;;;14.55;;
19205;SDS011;59358;52.134;5.596;2022-10-15T11:15:09;18.55;;;13.15;;
19205;SDS011;59358;52.134;5.596;2022-10-15T11:17:52;19.08;;;13.45;;
19205;SDS011;59358;52.134;5.596;2022-10-15T11:20:29;19.48;;;13.07;;
19205;SDS011;59358;52.134;5.596;2022-10-15T11:23:09;23.17;;;14.43;;
19205;SDS011;59358;52.134;5.596;2022-10-15T11:25:49;20.77;;;14.20;;
19205;SDS011;59358;52.134;5.596;2022-10-15T11:28:26;21.50;;;14.65;;
19205;SDS011;59358;52.134;5.596;2022-10-15T11:31:09;20.45;;;14.43;;
19205;SDS011;59358;52.134;5.596;2022-10-15T11:33:50;20.63;;;14.15;;
19205;SDS011;59358;52.134;5.596;2022-10-15T11:36:35;17.70;;;12.20;;
19205;SDS011;59358;52.134;5.596;2022-10-15T11:42:09;21.65;;;13.55;;
19205;SDS011;59358;52.134;5.596;2022-10-15T11:45:00;19.08;;;13.80;;
19205;SDS011;59358;52.134;5.596;2022-10-15T11:47:41;19.00;;;13.35;;
19205;SDS011;59358;52.134;5.596;2022-10-15T11:50:18;21.70;;;13.65;;
19205;SDS011;59358;52.134;5.596;2022-10-15T11:52:58;20.98;;;14.05;;
19205;SDS011;59358;52.134;5.596;2022-10-15T11:55:48;18.95;;;13.43;;
19205;SDS011;59358;52.134;5.596;2022-10-15T11:58:19;24.38;;;14.77;;
19205;SDS011;59358;52.134;5.596;2022-10-15T12:00:55;20.55;;;13.05;;
19205;SDS011;59358;52.134;5.596;2022-10-15T12:03:28;25.20;;;12.82;;
19205;SDS011;59358;52.134;5.596;2022-10-15T12:06:02;20.50;;;13.38;;
19205;SDS011;59358;52.134;5.596;2022-10-15T12:08:33;20.52;;;13.32;;
19205;SDS011;59358;52.134;5.596;2022-10-15T12:11:06;16.25;;;11.65;;
19205;SDS011;59358;52.134;5.596;2022-10-15T12:13:44;20.75;;;11.13;;
19205;SDS011;59358;52.134;5.596;2022-10-15T12:16:20;22.38;;;11.55;;
19205;SDS011;59358;52.134;5.596;2022-10-15T12:18:54;15.75;;;11.35;;
19205;SDS011;59358;52.134;5.596;2022-10-15T12:21:29;12.73;;;9.93;;
19205;SDS011;59358;52.134;5.596;2022-10-15T12:23:58;15.32;;;10.60;;
19205;SDS011;59358;52.134;5.596;2022-10-15T12:26:28;12.82;;;10.75;;
19205;SDS011;59358;52.134;5.596;2022-10-15T12:28:58;12.63;;;9.63;;
19205;SDS011;59358;52.134;5.596;2022-10-15T12:31:41;12.52;;;9.93;;
19205;SDS011;59358;52.134;5.596;2022-10-15T12:34:22;13.48;;;10.45;;
19205;SDS011;59358;52.134;5.596;2022-10-15T12:36:58;12.73;;;10.23;;
19205;SDS011;59358;52.134;5.596;2022-10-15T12:39:26;13.65;;;9.90;;
19205;SDS011;59358;52.134;5.596;2022-10-15T12:41:54;12.82;;;9.95;;
19205;SDS011;59358;52.134;5.596;2022-10-15T12:44:22;10.45;;;8.85;;
19205;SDS011;59358;52.134;5.596;2022-10-15T12:46:52;12.05;;;10.43;;
19205;SDS011;59358;52.134;5.596;2022-10-15T12:55:21;14.45;;;11.13;;
19205;SDS011;59358;52.134;5.596;2022-10-15T12:57:52;15.68;;;12.77;;
19205;SDS011;59358;52.134;5.596;2022-10-15T13:00:27;18.50;;;15.68;;
19205;SDS011;59358;52.134;5.596;2022-10-15T13:02:56;19.25;;;16.40;;
19205;SDS011;59358;52.134;5.596;2022-10-15T13:05:33;19.13;;;15.25;;
19205;SDS011;59358;52.134;5.596;2022-10-15T13:08:01;16.58;;;14.43;;
19205;SDS011;59358;52.134;5.596;2022-10-15T13:10:32;15.23;;;13.05;;
19205;SDS011;59358;52.134;5.596;2022-10-15T13:13:04;15.13;;;12.50;;
19205;SDS011;59358;52.134;5.596;2022-10-15T13:15:32;15.02;;;13.10;;
19205;SDS011;59358;52.134;5.596;2022-10-15T13:18:03;14.52;;;11.70;;
19205;SDS011;59358;52.134;5.596;2022-10-15T13:20:34;13.95;;;11.98;;
19205;SDS011;59358;52.134;5.596;2022-10-15T13:23:07;15.27;;;11.90;;
19205;SDS011;59358;52.134;5.596;2022-10-15T13:25:35;16.20;;;13.68;;
19205;SDS011;59358;52.134;5.596;2022-10-15T13:31:00;14.77;;;11.88;;
19205;SDS011;59358;52.134;5.596;2022-10-15T13:33:28;16.38;;;12.38;;
19205;SDS011;59358;52.134;5.596;2022-10-15T13:35:56;14.23;;;12.73;;
19205;SDS011;59358;52.134;5.596;2022-10-15T13:38:30;13.98;;;10.77;;
19205;SDS011;59358;52.134;5.596;2022-10-15T13:40:57;13.52;;;10.80;;
19205;SDS011;59358;52.134;5.596;2022-10-15T13:43:25;14.10;;;10.70;;
19205;SDS011;59358;52.134;5.596;2022-10-15T13:45:55;13.07;;;11.07;;
19205;SDS011;59358;52.134;5.596;2022-10-15T13:48:23;15.35;;;11.57;;
19205;SDS011;59358;52.134;5.596;2022-10-15T13:50:52;13.35;;;11.57;;
19205;SDS011;59358;52.134;5.596;2022-10-15T13:53:22;13.23;;;11.57;;
19205;SDS011;59358;52.134;5.596;2022-10-15T13:55:55;14.60;;;11.38;;
19205;SDS011;59358;52.134;5.596;2022-10-15T13:58:23;11.77;;;10.57;;
19205;SDS011;59358;52.134;5.596;2022-10-15T14:00:54;12.80;;;11.13;;
19205;SDS011;59358;52.134;5.596;2022-10-15T14:03:24;12.68;;;10.68;;
19205;SDS011;59358;52.134;5.596;2022-10-15T14:05:53;13.07;;;10.55;;
19205;SDS011;59358;52.134;5.596;2022-10-15T14:08:22;12.48;;;10.90;;
19205;SDS011;59358;52.134;5.596;2022-10-15T14:10:52;11.27;;;10.10;;
19205;SDS011;59358;52.134;5.596;2022-10-15T14:13:20;12.02;;;9.88;;
19205;SDS011;59358;52.134;5.596;2022-10-15T14:15:49;11.77;;;9.52;;
19205;SDS011;59358;52.134;5.596;2022-10-15T14:18:46;28.50;;;10.15;;
19205;SDS011;59358;52.134;5.596;2022-10-15T14:21:15;11.57;;;9.38;;
19205;SDS011;59358;52.134;5.596;2022-10-15T14:23:43;9.20;;;8.23;;
19205;SDS011;59358;52.134;5.596;2022-10-15T14:26:12;11.65;;;9.65;;
19205;SDS011;59358;52.134;5.596;2022-10-15T14:28:43;9.55;;;8.65;;
19205;SDS011;59358;52.134;5.596;2022-10-15T14:31:24;9.90;;;8.70;;
19205;SDS011;59358;52.134;5.596;2022-10-15T14:33:57;15.15;;;9.90;;
19205;SDS011;59358;52.134;5.596;2022-10-15T14:36:25;8.40;;;7.60;;
19205;SDS011;59358;52.134;5.596;2022-10-15T14:38:53;7.43;;;6.13;;
19205;SDS011;59358;52.134;5.596;2022-10-15T14:41:22;10.25;;;8.80;;
19205;SDS011;59358;52.134;5.596;2022-10-15T14:44:05;9.88;;;8.25;;
19205;SDS011;59358;52.134;5.596;2022-10-15T14:46:43;8.43;;;6.97;;
19205;SDS011;59358;52.134;5.596;2022-10-15T14:49:17;8.95;;;6.20;;